Graham, OK (73437)

1:49 AM CDT on October 01, 2014 (GMT -0500)
Fox Volunteer Fire Department | Change Station
CLOSE
Current Station
Personal Weather Station
Location: Fox, OK
Elevation: 988 ft
Nearby Weather Stations
4.1 Earthquake: Perry, Oklahoma (1 day ago)  

Elev 988 ft 34.36 °N, 97.49 °W | Updated 4 minutes ago

Clear
Clear
72.6 °F
Feels Like 72 °F
N
4.0
Wind Variable Wind from ESE
Gusts 7.0 mph

Today
High -- | Low -- °F
--% Chance of Precip.
Yesterday
High -- | Low -- °F
Precip. -- in
7:24 AM 7:14 PM
Waxing Crescent, 44% visible
Pressure 29.77 in
Visibility 10.0 miles
Clouds Clear
Heat Index 72 °F
Dew Point 68 °F
Humidity 84%
Rainfall 0.00 in
Snow Depth Not available.
UV 0 out of 12
Pollen 9.50 out of 12
Air Quality Not available.
Flu Activity Not available.
METAR K1F0 010635Z AUTO 14004KT 10SM CLR 21/19 A2977 RMK AO2

More Conditions Fewer Conditions

Pressure 29.77 in
Visibility 10.0 miles
Clouds Clear
Heat Index 72 °F
Dew Point 68 °F
Humidity 84%
Rainfall 0.00 in
Snow Depth Not available.
UV 0 out of 12
Pollen 9.50 out of 12
Air Quality Not available.
Flu Activity Not available.
METAR K1F0 010635Z AUTO 14004KT 10SM CLR 21/19 A2977 RMK AO2

More Conditions Fewer Conditions

10-Day Weather Forecast

Almanac

Astronomy

Oct. 01, 2014 Rise Set
Actual Time 7:24 AM CDT 7:14 PM CDT
Civil Twilight 6:59 AM CDT 7:39 PM CDT
Nautical Twilight 6:30 AM CDT 8:08 PM CDT
Astronomical Twilight 6:01 AM CDT 8:37 PM CDT
Moon 2:15 PM CDT No Moon Set
Length of Visible Light 12h 39m
Length of Day
11h 49m
Tomorrow will be 2m 8s shorter.
Waxing Crescent, 44% of the Moon is Illuminated
Today
Waxing Crescent
Oct 1
First Quarter
Oct 8
Full
Oct 15
Last Quarter
Oct 23
New

Today's Extremes

State Highs State Lows

Community

WunderPhotos

Upload Photos

1,757,886 photos uploaded!

Nearby

Snow Depth

Station Depth Elevation
No new snow has been reported.

Earthquake Activity

City Distance Mag. Time & Date
Spencer, Oklahoma 87 miles 3.0 5:12 PM CDT
2014-09-30
Perry, Oklahoma 128 miles 2.6 2:34 PM CDT
2014-09-30
Yale, Oklahoma 138 miles 2.6 11:29 AM CDT
2014-09-30
Perry, Oklahoma 130 miles 3.5 1:06 AM CDT
2014-09-30
Minimum magnitude displayed is 2.5.

Coastal Water Temperatures

Place Temperature
No Stations Reporting

Nearby Weather Stations